Time;durP1;ratioP1;P1;durP2;ratioP2;P2;SDS_P1;SDS_P2;PMS_P1;PMS_P2;Temp;Humidity;BMP_temperature;BMP_pressure;BME280_temperature;BME280_humidity;BME280_pressure;Samples;Min_cycle;Max_cycle;Signal;HPM_P1;HPM_P2
2021/12/29 00:01:35;;;;;;;;;;;;;;;;;;5081847;28;1125;-79
2021/12/29 00:04:00;;;;;;;;;;;;;;;;;;5068479;28;1263;-78
2021/12/29 00:06:25;;;;;;;;;;;;;;;;;;5045271;28;1211;-78
2021/12/29 00:08:51;;;;;;;;;;;;;;;;;;5066946;28;1956;-79
2021/12/29 00:11:16;;;;;;;;;;;;;;;;;;5064402;28;1283;-78
2021/12/29 00:13:41;;;;;;;;;;;;;;;;;;5049588;28;1362;-79
2021/12/29 00:16:07;;;;;;;;;;;;;;;;;;5066535;28;1415;-81
2021/12/29 00:18:33;;;;;;;;;;;;;;;;;;5063832;28;1177;-81
2021/12/29 00:20:59;;;;;;;;;;;;;;;;;;5064128;28;1304;-79
2021/12/29 00:23:25;;;;;;;;;;;;;;;;;;5083516;28;1113;-79
2021/12/29 00:25:51;;;;;;;;;;;;;;;;;;5084699;28;1129;-78
2021/12/29 00:28:19;;;;;;;;;;;;;;;;;;5083024;28;1156;-78
2021/12/29 00:30:44;;;;;;;;;;;;;;;;;;5085448;28;1951;-79
2021/12/29 00:33:10;;;;;;;;;;;;;;;;;;5064471;28;1313;-79
2021/12/29 00:35:38;;;;;;;;;;;;;;;;;;5063422;28;1119;-79
2021/12/29 00:38:05;;;;;;;;;;;;;;;;;;5066775;28;1157;-79
2021/12/29 00:40:30;;;;;;;;;;;;;;;;;;5065211;28;1120;-79
2021/12/29 00:42:56;;;;;;;;;;;;;;;;;;5086607;28;1121;-78
2021/12/29 00:45:21;;;;;;;;;;;;;;;;;;5080465;28;1266;-78
2021/12/29 00:47:48;;;;;;;;;;;;;;;;;;5095730;28;1215;-78
2021/12/29 00:50:15;;;;;;;;;;;;;;;;;;5081548;28;1910;-79
2021/12/29 00:52:41;;;;;;;;;;;;;;;;;;5066310;28;1298;-80
2021/12/29 00:55:07;;;;;;;;;;;;;;;;;;5064062;28;1416;-79
2021/12/29 00:57:32;;;;;;;;;;;;;;;;;;5049370;28;1205;-80
2021/12/29 00:59:57;;;;;;;;;;;;;;;;;;5067916;28;1331;-80
2021/12/29 01:02:23;;;;;;;;;;;;;;;;;;5087920;28;1188;-80
2021/12/29 01:04:49;;;;;;;;;;;;;;;;;;5069404;28;1205;-79
2021/12/29 01:07:14;;;;;;;;;;;;;;;;;;5089367;28;1160;-80
2021/12/29 01:09:42;;;;;;;;;;;;;;;;;;5071725;28;1963;-80
2021/12/29 01:12:08;;;;;;;;;;;;;;;;;;5055762;28;1213;-80
2021/12/29 01:14:34;;;;;;;;;;;;;;;;;;5054426;28;1169;-80
2021/12/29 01:16:59;;;;;;;;;;;;;;;;;;5070242;28;1145;-81
2021/12/29 01:19:26;;;;;;;;;;;;;;;;;;5088015;28;1370;-80
2021/12/29 01:21:52;;;;;;;;;;;;;;;;;;5069225;28;1474;-79
2021/12/29 01:24:19;;;;;;;;;;;;;;;;;;5071154;28;1197;-79
2021/12/29 01:26:44;;;;;;;;;;;;;;;;;;5087554;28;1192;-80
2021/12/29 01:29:12;;;;;;;;;;;;;;;;;;5070785;28;1945;-81
2021/12/29 01:31:37;;;;;;;;;;;;;;;;;;5068387;28;1260;-80
2021/12/29 01:34:05;;;;;;;;;;;;;;;;;;5088779;28;1143;-80
2021/12/29 01:36:34;;;;;;;;;;;;;;;;;;5066999;28;1160;-79
2021/12/29 01:38:59;;;;;;;;;;;;;;;;;;5089374;28;1220;-81
2021/12/29 01:41:25;;;;;;;;;;;;;;;;;;5053159;28;1188;-79
2021/12/29 01:43:50;;;;;;;;;;;;;;;;;;5054177;28;1161;-79
2021/12/29 01:46:16;;;;;;;;;;;;;;;;;;5088908;28;1192;-79
2021/12/29 01:48:41;;;;;;;;;;;;;;;;;;5051241;28;1965;-79
2021/12/29 01:51:06;;;;;;;;;;;;;;;;;;5067588;28;1735;-80
2021/12/29 01:53:33;;;;;;;;;;;;;;;;;;5068739;28;1224;-80
2021/12/29 01:55:59;;;;;;;;;;;;;;;;;;5053480;28;1216;-80
2021/12/29 01:58:27;;;;;;;;;;;;;;;;;;5088210;28;1189;-80
2021/12/29 02:00:54;;;;;;;;;;;;;;;;;;5070925;28;1642;-79
2021/12/29 02:03:19;;;;;;;;;;;;;;;;;;5068881;28;1288;-79
2021/12/29 02:05:45;;;;;;;;;;;;;;;;;;5067244;28;1141;-78
2021/12/29 02:08:11;;;;;;;;;;;;;;;;;;5089107;28;1486;-79
2021/12/29 02:10:44;;;;;;;;;;;;;;;;;;5069526;28;1964;-77
2021/12/29 02:13:10;;;;;;;;;;;;;;;;;;5069198;28;1199;-78
2021/12/29 02:15:35;;;;;;;;;;;;;;;;;;5068089;28;1231;-78
2021/12/29 02:18:00;;;;;;;;;;;;;;;;;;5069533;28;1157;-79
2021/12/29 02:20:29;;;;;;;;;;;;;;;;;;5085818;28;1196;-78
2021/12/29 02:23:02;;;;;;;;;;;;;;;;;;5075605;28;1295;-78
2021/12/29 02:25:46;;;;;;;;;;;;;;;;;;5092307;28;1179;-78
2021/12/29 02:28:13;;;;;;;;;;;;;;;;;;5074250;28;1121;-78
2021/12/29 02:30:38;;;;;;;;;;;;;;;;;;5069454;28;1894;-79
2021/12/29 02:33:06;;;;;;;;;;;;;;;;;;5068991;28;1200;-80
2021/12/29 02:35:31;;;;;;;;;;;;;;;;;;5050270;28;1412;-79
2021/12/29 02:37:58;;;;;;;;;;;;;;;;;;5089049;28;1136;-79
2021/12/29 02:40:24;;;;;;;;;;;;;;;;;;5070128;28;1406;-79
2021/12/29 02:42:49;;;;;;;;;;;;;;;;;;5069691;28;1338;-79
2021/12/29 02:45:17;;;;;;;;;;;;;;;;;;5070381;28;1141;-80
2021/12/29 02:47:43;;;;;;;;;;;;;;;;;;5067703;28;1810;-78
2021/12/29 02:50:10;;;;;;;;;;;;;;;;;;5084842;28;1971;-77
2021/12/29 02:52:35;;;;;;;;;;;;;;;;;;5068249;28;1279;-79
2021/12/29 02:55:01;;;;;;;;;;;;;;;;;;5053202;28;1387;-79
2021/12/29 02:57:26;;;;;;;;;;;;;;;;;;5053173;28;1350;-78
2021/12/29 02:59:52;;;;;;;;;;;;;;;;;;5069335;28;1179;-78
2021/12/29 03:02:18;;;;;;;;;;;;;;;;;;5051776;28;1213;-79
2021/12/29 03:04:48;;;;;;;;;;;;;;;;;;5085014;28;1259;-79
2021/12/29 03:07:13;;;;;;;;;;;;;;;;;;5069276;28;1290;-79
2021/12/29 03:09:39;;;;;;;;;;;;;;;;;;5068672;28;2054;-79
2021/12/29 03:12:04;;;;;;;;;;;;;;;;;;5068240;28;1182;-79
2021/12/29 03:14:36;;;;;;;;;;;;;;;;;;5069682;28;1244;-81
2021/12/29 03:17:01;;;;;;;;;;;;;;;;;;5066306;28;1133;-77
2021/12/29 03:19:26;;;;;;;;;;;;;;;;;;5069233;28;1157;-79
2021/12/29 03:21:52;;;;;;;;;;;;;;;;;;5048459;28;1185;-79
2021/12/29 03:24:20;;;;;;;;;;;;;;;;;;5068845;28;1133;-78
2021/12/29 03:26:46;;;;;;;;;;;;;;;;;;5066388;28;1200;-79
2021/12/29 03:29:11;;;;;;;;;;;;;;;;;;5051574;28;1922;-79
2021/12/29 03:31:39;;;;;;;;;;;;;;;;;;5082895;28;1097;-79
2021/12/29 03:34:04;;;;;;;;;;;;;;;;;;5068054;28;1169;-79
2021/12/29 03:36:29;;;;;;;;;;;;;;;;;;5066000;28;1161;-78
2021/12/29 03:38:55;;;;;;;;;;;;;;;;;;5084323;28;1437;-78
2021/12/29 03:41:23;;;;;;;;;;;;;;;;;;5068420;28;1252;-78
2021/12/29 03:43:48;;;;;;;;;;;;;;;;;;5050726;28;1519;-79
2021/12/29 03:46:14;;;;;;;;;;;;;;;;;;5051108;28;1654;-79
2021/12/29 03:48:41;;;;;;;;;;;;;;;;;;5083732;28;1970;-79
2021/12/29 03:51:06;;;;;;;;;;;;;;;;;;5069500;28;1204;-79
2021/12/29 03:53:32;;;;;;;;;;;;;;;;;;5087144;28;1211;-80
2021/12/29 03:55:57;;;;;;;;;;;;;;;;;;5064400;28;1376;-79
2021/12/29 03:58:24;;;;;;;;;;;;;;;;;;5068223;28;1153;-80
2021/12/29 04:00:50;;;;;;;;;;;;;;;;;;5085070;28;1264;-78
2021/12/29 04:03:16;;;;;;;;;;;;;;;;;;5086639;28;1097;-78
2021/12/29 04:05:41;;;;;;;;;;;;;;;;;;5066643;28;1077;-78
2021/12/29 04:08:07;;;;;;;;;;;;;;;;;;5068342;28;1318;-77
2021/12/29 04:10:32;;;;;;;;;;;;;;;;;;5086451;28;2009;-78
2021/12/29 04:12:58;;;;;;;;;;;;;;;;;;5086222;28;1156;-80
2021/12/29 04:15:27;;;;;;;;;;;;;;;;;;5068322;28;1201;-78
2021/12/29 04:17:58;;;;;;;;;;;;;;;;;;5083383;28;1212;-78
2021/12/29 04:23:08;;;;;;;;;;;;;;;;;;5086429;28;1024;-79
2021/12/29 04:25:38;;;;;;;;;;;;;;;;;;5088045;28;1165;-79
2021/12/29 04:28:07;;;;;;;;;;;;;;;;;;5069072;28;1224;-79
2021/12/29 04:30:32;;;;;;;;;;;;;;;;;;5076880;28;1917;-79
2021/12/29 04:32:58;;;;;;;;;;;;;;;;;;5092979;28;1219;-79
2021/12/29 04:35:23;;;;;;;;;;;;;;;;;;5072914;28;1228;-79
2021/12/29 04:37:49;;;;;;;;;;;;;;;;;;5075473;28;1181;-78
2021/12/29 04:40:15;;;;;;;;;;;;;;;;;;5080967;28;1286;-78
2021/12/29 04:42:43;;;;;;;;;;;;;;;;;;5105511;28;1235;-79
2021/12/29 04:45:09;;;;;;;;;;;;;;;;;;5089790;28;1139;-79
2021/12/29 04:47:39;;;;;;;;;;;;;;;;;;5103445;28;1298;-80
2021/12/29 04:50:07;;;;;;;;;;;;;;;;;;5082905;28;1886;-79
2021/12/29 04:52:32;;;;;;;;;;;;;;;;;;5085948;28;1153;-80
2021/12/29 04:54:58;;;;;;;;;;;;;;;;;;5066597;28;1169;-79
2021/12/29 04:57:23;;;;;;;;;;;;;;;;;;5086028;28;1181;-79
2021/12/29 04:59:49;;;;;;;;;;;;;;;;;;5068110;28;1185;-78
2021/12/29 05:02:14;;;;;;;;;;;;;;;;;;5084227;28;1194;-80
2021/12/29 05:05:02;;;;;;;;;;;;;;;;;;5103937;28;1147;-79
2021/12/29 05:10:11;;;;;;;;;;;;;;;;;;5090804;28;1883;-78
2021/12/29 05:12:36;;;;;;;;;;;;;;;;;;5088300;28;1159;-80
2021/12/29 05:15:02;;;;;;;;;;;;;;;;;;5087907;28;1181;-79
2021/12/29 05:17:28;;;;;;;;;;;;;;;;;;5094124;28;1129;-79
2021/12/29 05:19:53;;;;;;;;;;;;;;;;;;5087142;28;1133;-78
2021/12/29 05:22:18;;;;;;;;;;;;;;;;;;5070224;28;1129;-79
2021/12/29 05:24:45;;;;;;;;;;;;;;;;;;5069425;28;1156;-78
2021/12/29 05:27:10;;;;;;;;;;;;;;;;;;5052716;28;1346;-78
2021/12/29 05:29:36;;;;;;;;;;;;;;;;;;5054082;28;1966;-78
2021/12/29 05:32:02;;;;;;;;;;;;;;;;;;5088104;28;1042;-81
2021/12/29 05:34:27;;;;;;;;;;;;;;;;;;5071274;28;1161;-80
2021/12/29 05:36:56;;;;;;;;;;;;;;;;;;5067439;28;1141;-78
2021/12/29 05:39:21;;;;;;;;;;;;;;;;;;5069770;28;1122;-79
2021/12/29 05:41:46;;;;;;;;;;;;;;;;;;5067800;28;1113;-77
2021/12/29 05:44:12;;;;;;;;;;;;;;;;;;5068485;28;1294;-78
2021/12/29 05:46:37;;;;;;;;;;;;;;;;;;5085747;28;1400;-78
2021/12/29 05:49:03;;;;;;;;;;;;;;;;;;5091061;28;1991;-79
2021/12/29 05:51:28;;;;;;;;;;;;;;;;;;5088082;28;1081;-78
2021/12/29 05:53:53;;;;;;;;;;;;;;;;;;5055750;28;1256;-79
2021/12/29 05:56:19;;;;;;;;;;;;;;;;;;5071329;28;1137;-78
2021/12/29 05:58:48;;;;;;;;;;;;;;;;;;5071783;28;1228;-79
2021/12/29 06:01:13;;;;;;;;;;;;;;;;;;5054745;28;1259;-78
2021/12/29 06:03:39;;;;;;;;;;;;;;;;;;5068553;28;1334;-78
2021/12/29 06:06:05;;;;;;;;;;;;;;;;;;5067222;28;1333;-78
2021/12/29 06:08:30;;;;;;;;;;;;;;;;;;5089180;28;1258;-77
2021/12/29 06:10:56;;;;;;;;;;;;;;;;;;5086825;28;1890;-78
2021/12/29 06:13:21;;;;;;;;;;;;;;;;;;5088490;28;1216;-77
2021/12/29 06:15:47;;;;;;;;;;;;;;;;;;5051692;28;1161;-78
2021/12/29 06:18:13;;;;;;;;;;;;;;;;;;5066452;28;1204;-78
2021/12/29 06:20:39;;;;;;;;;;;;;;;;;;5086963;28;1141;-78
2021/12/29 06:23:08;;;;;;;;;;;;;;;;;;5088551;28;1114;-77
2021/12/29 06:25:33;;;;;;;;;;;;;;;;;;5088874;28;1203;-77
2021/12/29 06:27:59;;;;;;;;;;;;;;;;;;5069592;28;1635;-77
2021/12/29 06:30:24;;;;;;;;;;;;;;;;;;5087431;28;2328;-77
2021/12/29 06:32:55;;;;;;;;;;;;;;;;;;5067686;28;1310;-77
2021/12/29 06:35:21;;;;;;;;;;;;;;;;;;5067876;28;1283;-77
2021/12/29 06:37:46;;;;;;;;;;;;;;;;;;5070371;28;1377;-77
2021/12/29 06:40:12;;;;;;;;;;;;;;;;;;5050826;28;1317;-75
2021/12/29 06:42:38;;;;;;;;;;;;;;;;;;5087005;28;1378;-77
2021/12/29 06:45:03;;;;;;;;;;;;;;;;;;5066232;28;1416;-77
2021/12/29 06:47:29;;;;;;;;;;;;;;;;;;5066184;28;1428;-77
2021/12/29 06:49:57;;;;;;;;;;;;;;;;;;5066808;28;1894;-76
2021/12/29 06:52:22;;;;;;;;;;;;;;;;;;5087356;28;1251;-77
2021/12/29 06:54:48;;;;;;;;;;;;;;;;;;5069356;28;1172;-77
2021/12/29 06:57:13;;;;;;;;;;;;;;;;;;5065465;28;1148;-77
2021/12/29 06:59:38;;;;;;;;;;;;;;;;;;5068741;28;1137;-78
2021/12/29 07:02:04;;;;;;;;;;;;;;;;;;5081573;28;1148;-77
2021/12/29 07:04:29;;;;;;;;;;;;;;;;;;5067819;28;1393;-77
2021/12/29 07:06:55;;;;;;;;;;;;;;;;;;5064696;28;1145;-77
2021/12/29 07:09:21;;;;;;;;;;;;;;;;;;5067736;28;1937;-77
2021/12/29 07:11:46;;;;;;;;;;;;;;;;;;5084689;28;1161;-78
2021/12/29 07:14:12;;;;;;;;;;;;;;;;;;5086498;28;1106;-78
2021/12/29 07:16:38;;;;;;;;;;;;;;;;;;5066232;28;1296;-78
2021/12/29 07:19:04;;;;;;;;;;;;;;;;;;5085952;28;1114;-77
2021/12/29 07:21:29;;;;;;;;;;;;;;;;;;5066281;28;1148;-77
2021/12/29 07:24:00;;;;;;;;;;;;;;;;;;5086815;28;1324;-77
2021/12/29 07:26:26;;;;;;;;;;;;;;;;;;5083601;28;1153;-77
2021/12/29 07:28:52;;;;;;;;;;;;;;;;;;5086286;28;1898;-77
2021/12/29 07:31:17;;;;;;;;;;;;;;;;;;5067045;28;1293;-77
2021/12/29 07:33:43;;;;;;;;;;;;;;;;;;5066850;28;1195;-77
2021/12/29 07:36:08;;;;;;;;;;;;;;;;;;5083729;28;1223;-77
2021/12/29 07:38:33;;;;;;;;;;;;;;;;;;5087337;28;1133;-78
2021/12/29 07:40:59;;;;;;;;;;;;;;;;;;5050541;28;1359;-77
2021/12/29 07:43:24;;;;;;;;;;;;;;;;;;5051127;28;1361;-77
2021/12/29 07:45:50;;;;;;;;;;;;;;;;;;5069420;28;1286;-78
2021/12/29 07:48:18;;;;;;;;;;;;;;;;;;5049454;28;1258;-78
2021/12/29 07:50:43;;;;;;;;;;;;;;;;;;5084860;28;1973;-77
2021/12/29 07:53:12;;;;;;;;;;;;;;;;;;5066467;28;1373;-77
2021/12/29 07:55:37;;;;;;;;;;;;;;;;;;5067489;28;1102;-78
2021/12/29 07:58:03;;;;;;;;;;;;;;;;;;5049471;28;1337;-77
2021/12/29 08:00:28;;;;;;;;;;;;;;;;;;5065926;28;1438;-78
2021/12/29 08:02:54;;;;;;;;;;;;;;;;;;5084320;28;1279;-78
2021/12/29 08:05:19;;;;;;;;;;;;;;;;;;5062861;28;1153;-78
2021/12/29 08:07:48;;;;;;;;;;;;;;;;;;5050411;28;1205;-78
2021/12/29 08:10:13;;;;;;;;;;;;;;;;;;5065350;28;1955;-77
2021/12/29 08:12:39;;;;;;;;;;;;;;;;;;5068693;28;1311;-77
2021/12/29 08:15:05;;;;;;;;;;;;;;;;;;5068009;28;1220;-77
2021/12/29 08:17:32;;;;;;;;;;;;;;;;;;5049722;28;1222;-77
2021/12/29 08:19:58;;;;;;;;;;;;;;;;;;5065558;28;1291;-77
2021/12/29 08:22:23;;;;;;;;;;;;;;;;;;5065900;28;1188;-77
2021/12/29 08:24:48;;;;;;;;;;;;;;;;;;5050445;28;1480;-78
2021/12/29 08:27:13;;;;;;;;;;;;;;;;;;5065472;28;1289;-77
2021/12/29 08:29:40;;;;;;;;;;;;;;;;;;5067931;28;1901;-76
2021/12/29 08:32:06;;;;;;;;;;;;;;;;;;5048256;28;1221;-77
2021/12/29 08:34:31;;;;;;;;;;;;;;;;;;5068173;28;1322;-76
2021/12/29 08:36:56;;;;;;;;;;;;;;;;;;5064774;28;1261;-76
2021/12/29 08:39:23;;;;;;;;;;;;;;;;;;5049327;28;1274;-77
2021/12/29 08:41:49;;;;;;;;;;;;;;;;;;5066174;28;1309;-78
2021/12/29 08:44:14;;;;;;;;;;;;;;;;;;5066252;28;1252;-78
2021/12/29 08:46:40;;;;;;;;;;;;;;;;;;5065134;28;1334;-78
2021/12/29 08:49:08;;;;;;;;;;;;;;;;;;5084084;28;1979;-77
2021/12/29 08:51:33;;;;;;;;;;;;;;;;;;5047733;28;1299;-78
2021/12/29 08:53:59;;;;;;;;;;;;;;;;;;5050231;28;1177;-78
2021/12/29 08:56:25;;;;;;;;;;;;;;;;;;5083123;28;1073;-77
2021/12/29 08:58:51;;;;;;;;;;;;;;;;;;5066660;28;1319;-77
2021/12/29 09:01:17;;;;;;;;;;;;;;;;;;5082472;28;1212;-78
2021/12/29 09:03:42;;;;;;;;;;;;;;;;;;5065468;28;1244;-78
2021/12/29 09:06:11;;;;;;;;;;;;;;;;;;5081924;28;1121;-77
2021/12/29 09:08:36;;;;;;;;;;;;;;;;;;5066870;28;1176;-78
2021/12/29 09:11:02;;;;;;;;;;;;;;;;;;5084678;28;1902;-77
2021/12/29 09:13:27;;;;;;;;;;;;;;;;;;5084671;28;1153;-77
2021/12/29 09:15:56;;;;;;;;;;;;;;;;;;5084975;28;1212;-77
2021/12/29 09:18:23;;;;;;;;;;;;;;;;;;5064194;28;1228;-77
2021/12/29 09:20:48;;;;;;;;;;;;;;;;;;5051563;28;1185;-77
2021/12/29 09:23:14;;;;;;;;;;;;;;;;;;5055306;28;1199;-77
2021/12/29 09:25:47;;;;;;;;;;;;;;;;;;5083787;28;1108;-78
2021/12/29 09:28:17;;;;;;;;;;;;;;;;;;5067685;28;1105;-77
2021/12/29 09:30:44;;;;;;;;;;;;;;;;;;5064138;28;1960;-78
2021/12/29 09:33:10;;;;;;;;;;;;;;;;;;5067055;28;1212;-78
2021/12/29 09:35:36;;;;;;;;;;;;;;;;;;5067814;28;1181;-78
2021/12/29 09:38:02;;;;;;;;;;;;;;;;;;5083483;28;1156;-78
2021/12/29 09:40:31;;;;;;;;;;;;;;;;;;5065854;28;1476;-77
2021/12/29 09:42:56;;;;;;;;;;;;;;;;;;5069414;28;1350;-77
2021/12/29 09:45:22;;;;;;;;;;;;;;;;;;5065118;28;1145;-78
2021/12/29 09:47:49;;;;;;;;;;;;;;;;;;5082834;28;1255;-77
2021/12/29 09:50:16;;;;;;;;;;;;;;;;;;5064351;28;1913;-77
2021/12/29 09:52:42;;;;;;;;;;;;;;;;;;5082327;28;1180;-78
2021/12/29 09:55:18;;;;;;;;;;;;;;;;;;5087032;28;1432;-78
2021/12/29 09:57:50;;;;;;;;;;;;;;;;;;5068256;28;1378;-78
2021/12/29 10:00:21;;;;;;;;;;;;;;;;;;5064500;28;1223;-77
2021/12/29 10:02:47;;;;;;;;;;;;;;;;;;5064099;28;1223;-77
2021/12/29 10:05:12;;;;;;;;;;;;;;;;;;5082838;28;1197;-78
2021/12/29 10:07:37;;;;;;;;;;;;;;;;;;5084319;28;1125;-79
2021/12/29 10:10:03;;;;;;;;;;;;;;;;;;5067569;28;1934;-78
2021/12/29 10:12:28;;;;;;;;;;;;;;;;;;5072450;28;1114;-78
2021/12/29 10:14:55;;;;;;;;;;;;;;;;;;5090765;28;1133;-78
2021/12/29 10:17:25;;;;;;;;;;;;;;;;;;5074774;28;1224;-78
2021/12/29 10:20:20;;;;;;;;;;;;;;;;;;5087276;28;1201;-78
2021/12/29 10:22:54;;;;;;;;;;;;;;;;;;5068365;28;1248;-79
2021/12/29 10:25:22;;;;;;;;;;;;;;;;;;5067997;28;1180;-78
2021/12/29 10:27:48;;;;;;;;;;;;;;;;;;5069581;28;878;-78
2021/12/29 10:30:22;;;;;;;;;;;;;;;;;;5088087;28;1951;-78
2021/12/29 10:32:48;;;;;;;;;;;;;;;;;;5086887;28;972;-78
2021/12/29 10:35:21;;;;;;;;;;;;;;;;;;5051267;28;1454;-77
2021/12/29 10:37:46;;;;;;;;;;;;;;;;;;5069876;28;1331;-78
2021/12/29 10:40:23;;;;;;;;;;;;;;;;;;5068443;28;1125;-78
2021/12/29 10:42:52;;;;;;;;;;;;;;;;;;5068653;28;1226;-78
2021/12/29 10:45:27;;;;;;;;;;;;;;;;;;5066518;28;1225;-79
2021/12/29 10:47:53;;;;;;;;;;;;;;;;;;5051068;28;1248;-81
2021/12/29 10:50:21;;;;;;;;;;;;;;;;;;5048465;28;1937;-79
2021/12/29 10:52:54;;;;;;;;;;;;;;;;;;5087944;28;1169;-80
2021/12/29 10:55:35;;;;;;;;;;;;;;;;;;5068539;28;1188;-81
2021/12/29 10:58:04;;;;;;;;;;;;;;;;;;5068076;28;1379;-80
2021/12/29 11:00:30;;;;;;;;;;;;;;;;;;5065581;28;1345;-79
2021/12/29 11:02:57;;;;;;;;;;;;;;;;;;5066211;28;1380;-79
2021/12/29 11:05:22;;;;;;;;;;;;;;;;;;5065355;28;1069;-80
2021/12/29 11:07:48;;;;;;;;;;;;;;;;;;5086128;28;1192;-79
2021/12/29 11:10:21;;;;;;;;;;;;;;;;;;5052480;28;1890;-80
2021/12/29 11:12:49;;;;;;;;;;;;;;;;;;5068661;28;1318;-79
2021/12/29 11:15:23;;;;;;;;;;;;;;;;;;5083713;28;1203;-79
2021/12/29 11:17:49;;;;;;;;;;;;;;;;;;5085245;28;1164;-78
2021/12/29 11:20:24;;;;;;;;;;;;;;;;;;5048972;28;1387;-78
2021/12/29 11:22:50;;;;;;;;;;;;;;;;;;5050499;28;1242;-79
2021/12/29 11:25:25;;;;;;;;;;;;;;;;;;5085624;28;1228;-78
2021/12/29 11:27:51;;;;;;;;;;;;;;;;;;5067939;28;1219;-79
2021/12/29 11:30:16;;;;;;;;;;;;;;;;;;5050478;28;1886;-79
2021/12/29 11:32:43;;;;;;;;;;;;;;;;;;5065371;28;1066;-79
2021/12/29 11:35:13;;;;;;;;;;;;;;;;;;5066083;28;1202;-79
2021/12/29 11:37:41;;;;;;;;;;;;;;;;;;5067469;28;1249;-77
2021/12/29 11:40:07;;;;;;;;;;;;;;;;;;5068622;28;1223;-77
2021/12/29 11:42:32;;;;;;;;;;;;;;;;;;5050967;28;1423;-79
2021/12/29 11:44:58;;;;;;;;;;;;;;;;;;5067275;28;1137;-77
2021/12/29 11:47:24;;;;;;;;;;;;;;;;;;5066388;28;1221;-78
2021/12/29 11:49:49;;;;;;;;;;;;;;;;;;5068223;28;1910;-78
2021/12/29 11:52:34;;;;;;;;;;;;;;;;;;5051519;28;1644;-78
2021/12/29 11:55:13;;;;;;;;;;;;;;;;;;5067376;28;1240;-78
2021/12/29 11:57:39;;;;;;;;;;;;;;;;;;5084577;28;1060;-78
2021/12/29 12:00:11;;;;;;;;;;;;;;;;;;5086590;28;1125;-77
2021/12/29 12:02:37;;;;;;;;;;;;;;;;;;5064264;28;1589;-77
2021/12/29 12:05:04;;;;;;;;;;;;;;;;;;5045820;28;1209;-77
2021/12/29 12:07:29;;;;;;;;;;;;;;;;;;5064698;28;1244;-76
2021/12/29 12:09:57;;;;;;;;;;;;;;;;;;5048079;28;1965;-77
2021/12/29 12:12:32;;;;;;;;;;;;;;;;;;5031035;28;1288;-77
2021/12/29 12:14:57;;;;;;;;;;;;;;;;;;5049632;28;1268;-77
2021/12/29 12:17:28;;;;;;;;;;;;;;;;;;5045610;28;1137;-77
2021/12/29 12:20:07;;;;;;;;;;;;;;;;;;5047383;28;1089;-77
2021/12/29 12:22:50;;;;;;;;;;;;;;;;;;5044861;28;1145;-78
2021/12/29 12:25:27;;;;;;;;;;;;;;;;;;5066866;28;1224;-77
2021/12/29 12:28:00;;;;;;;;;;;;;;;;;;5062726;28;1461;-77
2021/12/29 12:30:27;;;;;;;;;;;;;;;;;;5083445;28;1952;-77
2021/12/29 12:32:56;;;;;;;;;;;;;;;;;;5099950;28;1388;-77
2021/12/29 12:35:30;;;;;;;;;;;;;;;;;;5060629;28;1326;-76
2021/12/29 12:37:55;;;;;;;;;;;;;;;;;;5065921;28;1251;-76
2021/12/29 12:40:22;;;;;;;;;;;;;;;;;;5066790;28;1176;-76
2021/12/29 12:43:02;;;;;;;;;;;;;;;;;;5060642;28;1334;-77
2021/12/29 12:45:31;;;;;;;;;;;;;;;;;;5076325;28;1105;-77
2021/12/29 12:48:04;;;;;;;;;;;;;;;;;;5063933;28;1316;-78
2021/12/29 12:50:30;;;;;;;;;;;;;;;;;;5085089;28;1979;-77
2021/12/29 12:52:56;;;;;;;;;;;;;;;;;;5051095;28;1320;-77
2021/12/29 12:55:21;;;;;;;;;;;;;;;;;;5084610;28;1093;-77
2021/12/29 12:57:50;;;;;;;;;;;;;;;;;;5083640;28;1204;-78
2021/12/29 13:00:15;;;;;;;;;;;;;;;;;;5067149;28;1252;-76
2021/12/29 13:02:43;;;;;;;;;;;;;;;;;;5060008;28;1427;-77
2021/12/29 13:05:08;;;;;;;;;;;;;;;;;;5055305;28;1154;-78
2021/12/29 13:07:34;;;;;;;;;;;;;;;;;;5059319;28;1508;-77
2021/12/29 13:09:59;;;;;;;;;;;;;;;;;;5082294;28;1956;-76
2021/12/29 13:12:34;;;;;;;;;;;;;;;;;;5065447;28;1375;-77
2021/12/29 13:15:05;;;;;;;;;;;;;;;;;;5066344;28;1516;-77
2021/12/29 13:17:31;;;;;;;;;;;;;;;;;;5077806;28;1227;-77
2021/12/29 13:19:56;;;;;;;;;;;;;;;;;;5026083;28;1394;-77
2021/12/29 13:22:31;;;;;;;;;;;;;;;;;;5071777;28;1066;-78
2021/12/29 13:25:14;;;;;;;;;;;;;;;;;;5065289;28;1326;-79
2021/12/29 13:27:41;;;;;;;;;;;;;;;;;;5054917;28;1122;-78
2021/12/29 13:30:12;;;;;;;;;;;;;;;;;;5059133;28;1971;-78
2021/12/29 13:32:54;;;;;;;;;;;;;;;;;;5068066;28;1097;-77
2021/12/29 13:35:24;;;;;;;;;;;;;;;;;;5061844;28;1154;-78
2021/12/29 13:37:49;;;;;;;;;;;;;;;;;;5063709;28;1161;-78
2021/12/29 13:40:17;;;;;;;;;;;;;;;;;;5065320;28;1058;-78
2021/12/29 13:42:44;;;;;;;;;;;;;;;;;;5066146;28;1153;-79
2021/12/29 13:45:19;;;;;;;;;;;;;;;;;;5033526;28;1216;-79
2021/12/29 13:47:44;;;;;;;;;;;;;;;;;;5053339;28;1289;-78
2021/12/29 13:50:10;;;;;;;;;;;;;;;;;;5048320;28;1918;-77
2021/12/29 13:52:38;;;;;;;;;;;;;;;;;;5066025;28;1161;-78
2021/12/29 13:55:04;;;;;;;;;;;;;;;;;;5049211;28;1240;-78
2021/12/29 13:57:29;;;;;;;;;;;;;;;;;;5065895;28;1133;-78
2021/12/29 13:59:56;;;;;;;;;;;;;;;;;;5084064;28;1164;-78
2021/12/29 14:02:21;;;;;;;;;;;;;;;;;;5082500;28;1191;-79
2021/12/29 14:04:51;;;;;;;;;;;;;;;;;;5081760;28;1086;-79
2021/12/29 14:07:17;;;;;;;;;;;;;;;;;;5066009;28;1325;-79
2021/12/29 14:09:43;;;;;;;;;;;;;;;;;;5068505;28;1934;-79
2021/12/29 14:12:08;;;;;;;;;;;;;;;;;;5069991;28;1232;-78
2021/12/29 14:14:37;;;;;;;;;;;;;;;;;;5069178;28;1179;-77
2021/12/29 14:17:03;;;;;;;;;;;;;;;;;;5066511;28;1207;-78
2021/12/29 14:19:30;;;;;;;;;;;;;;;;;;5088430;28;1207;-77
2021/12/29 14:21:56;;;;;;;;;;;;;;;;;;5083902;28;1151;-78
2021/12/29 14:24:22;;;;;;;;;;;;;;;;;;5087815;28;1169;-79
2021/12/29 14:26:49;;;;;;;;;;;;;;;;;;5086357;28;1164;-80
2021/12/29 14:29:19;;;;;;;;;;;;;;;;;;5069197;28;1897;-79
2021/12/29 14:31:53;;;;;;;;;;;;;;;;;;5065723;28;1153;-78
2021/12/29 14:34:18;;;;;;;;;;;;;;;;;;5069700;28;1292;-80
2021/12/29 14:36:45;;;;;;;;;;;;;;;;;;5067346;28;1456;-79
2021/12/29 14:39:19;;;;;;;;;;;;;;;;;;5087621;28;1196;-78
2021/12/29 14:41:45;;;;;;;;;;;;;;;;;;5085081;28;1169;-79
2021/12/29 14:44:12;;;;;;;;;;;;;;;;;;5070664;28;1275;-79
2021/12/29 14:46:47;;;;;;;;;;;;;;;;;;5065093;28;1307;-78
2021/12/29 14:49:13;;;;;;;;;;;;;;;;;;5087312;28;1910;-79
2021/12/29 14:51:48;;;;;;;;;;;;;;;;;;5066061;28;1228;-78
2021/12/29 14:54:13;;;;;;;;;;;;;;;;;;5068035;28;1145;-78
2021/12/29 14:56:39;;;;;;;;;;;;;;;;;;5066382;28;1188;-79
2021/12/29 14:59:14;;;;;;;;;;;;;;;;;;5051916;28;1405;-79
2021/12/29 15:01:40;;;;;;;;;;;;;;;;;;5083958;28;1117;-78
2021/12/29 15:04:06;;;;;;;;;;;;;;;;;;5068234;28;1062;-79
2021/12/29 15:06:33;;;;;;;;;;;;;;;;;;5068663;28;1193;-79
2021/12/29 15:08:59;;;;;;;;;;;;;;;;;;5107693;28;1342;-78
2021/12/29 15:11:24;;;;;;;;;;;;;;;;;;5067328;28;1960;-78
2021/12/29 15:13:50;;;;;;;;;;;;;;;;;;5085271;28;1058;-79
2021/12/29 15:16:16;;;;;;;;;;;;;;;;;;5052329;28;1315;-79
2021/12/29 15:18:45;;;;;;;;;;;;;;;;;;5048870;28;1162;-79
2021/12/29 15:21:14;;;;;;;;;;;;;;;;;;5067116;28;1125;-79
2021/12/29 15:23:48;;;;;;;;;;;;;;;;;;5067380;28;1411;-81
2021/12/29 15:26:15;;;;;;;;;;;;;;;;;;5086463;28;1037;-81
2021/12/29 15:28:41;;;;;;;;;;;;;;;;;;5085902;28;1121;-80
2021/12/29 15:31:09;;;;;;;;;;;;;;;;;;5067245;28;1898;-80
2021/12/29 15:33:34;;;;;;;;;;;;;;;;;;5084237;28;1370;-80
2021/12/29 15:36:01;;;;;;;;;;;;;;;;;;5088204;28;1183;-80
2021/12/29 15:38:27;;;;;;;;;;;;;;;;;;5069114;28;1188;-81
2021/12/29 15:40:55;;;;;;;;;;;;;;;;;;5066600;28;1224;-80
2021/12/29 15:43:21;;;;;;;;;;;;;;;;;;5067532;28;1209;-80
2021/12/29 15:45:46;;;;;;;;;;;;;;;;;;5083795;28;1196;-80
2021/12/29 15:48:11;;;;;;;;;;;;;;;;;;5083558;28;1172;-80
2021/12/29 15:50:38;;;;;;;;;;;;;;;;;;5084409;28;1934;-79
2021/12/29 15:53:04;;;;;;;;;;;;;;;;;;5084625;28;1177;-79
2021/12/29 15:55:29;;;;;;;;;;;;;;;;;;5085616;28;1172;-85
2021/12/29 15:57:55;;;;;;;;;;;;;;;;;;5049296;28;1181;-80
2021/12/29 16:00:23;;;;;;;;;;;;;;;;;;5066485;28;1196;-81
2021/12/29 16:02:50;;;;;;;;;;;;;;;;;;5083050;28;1120;-81
2021/12/29 16:05:16;;;;;;;;;;;;;;;;;;5066334;28;1081;-81
2021/12/29 16:07:48;;;;;;;;;;;;;;;;;;5065879;28;1121;-81
2021/12/29 16:10:13;;;;;;;;;;;;;;;;;;5066770;28;1890;-80
2021/12/29 16:12:39;;;;;;;;;;;;;;;;;;5065953;28;1243;-81
2021/12/29 16:15:04;;;;;;;;;;;;;;;;;;5083489;28;1008;-80
2021/12/29 16:17:30;;;;;;;;;;;;;;;;;;5065682;28;1192;-80
2021/12/29 16:19:55;;;;;;;;;;;;;;;;;;5083431;28;1231;-83
2021/12/29 16:22:21;;;;;;;;;;;;;;;;;;5067200;28;1191;-83
2021/12/29 16:24:52;;;;;;;;;;;;;;;;;;5067295;28;1367;-84
2021/12/29 16:27:22;;;;;;;;;;;;;;;;;;5067306;28;1184;-85
2021/12/29 16:29:56;;;;;;;;;;;;;;;;;;5065966;28;1941;-83
2021/12/29 16:32:23;;;;;;;;;;;;;;;;;;5082940;28;1179;-83
2021/12/29 16:34:59;;;;;;;;;;;;;;;;;;5084920;28;1164;-81
2021/12/29 16:37:27;;;;;;;;;;;;;;;;;;5050681;28;1173;-82
2021/12/29 16:39:53;;;;;;;;;;;;;;;;;;5084293;28;1137;-80
2021/12/29 16:42:18;;;;;;;;;;;;;;;;;;5062023;28;1391;-79
2021/12/29 16:44:44;;;;;;;;;;;;;;;;;;5058325;28;1360;-79
2021/12/29 16:47:10;;;;;;;;;;;;;;;;;;5055972;28;1109;-79
2021/12/29 16:49:36;;;;;;;;;;;;;;;;;;5082145;28;1973;-79
2021/12/29 16:52:03;;;;;;;;;;;;;;;;;;5078249;28;1180;-79
2021/12/29 16:54:32;;;;;;;;;;;;;;;;;;5081241;28;1160;-79
2021/12/29 16:56:58;;;;;;;;;;;;;;;;;;5077096;28;1263;-79
2021/12/29 16:59:24;;;;;;;;;;;;;;;;;;5079990;28;1085;-78
2021/12/29 17:01:54;;;;;;;;;;;;;;;;;;5077674;28;1125;-80
2021/12/29 17:04:19;;;;;;;;;;;;;;;;;;5061756;28;1353;-80
2021/12/29 17:06:45;;;;;;;;;;;;;;;;;;5061297;28;1155;-80
2021/12/29 17:09:10;;;;;;;;;;;;;;;;;;5078876;28;1901;-82